sensor_id;sensor_type;location;lat;lon;timestamp;pressure;altitude;pressure_sealevel;temperature;humidity
43430;BME280;29028;43.234;27.896;2022-07-10T04:02:27;99402.34;;;21.76;64.10
43430;BME280;29028;43.234;27.896;2022-07-10T04:02:54;99391.09;;;21.77;63.78
43430;BME280;29028;43.234;27.896;2022-07-10T04:03:15;99402.59;;;21.79;63.71
43430;BME280;29028;43.234;27.896;2022-07-10T04:03:36;99403.44;;;21.75;63.88
43430;BME280;29028;43.234;27.896;2022-07-10T04:03:57;99395.50;;;21.73;64.18
43430;BME280;29028;43.234;27.896;2022-07-10T04:04:19;99393.31;;;21.65;64.30
43430;BME280;29028;43.234;27.896;2022-07-10T04:04:40;99404.56;;;21.69;64.45
43430;BME280;29028;43.234;27.896;2022-07-10T04:05:04;99399.88;;;21.69;64.05
43430;BME280;29028;43.234;27.896;2022-07-10T04:05:26;99396.06;;;21.65;64.30
43430;BME280;29028;43.234;27.896;2022-07-10T04:05:48;99401.81;;;21.74;65.00
43430;BME280;29028;43.234;27.896;2022-07-10T04:06:09;99400.69;;;21.80;64.56
43430;BME280;29028;43.234;27.896;2022-07-10T04:06:30;99399.28;;;21.87;63.98
43430;BME280;29028;43.234;27.896;2022-07-10T04:06:51;99402.28;;;21.86;63.69
43430;BME280;29028;43.234;27.896;2022-07-10T04:07:12;99404.53;;;21.79;63.79
43430;BME280;29028;43.234;27.896;2022-07-10T04:07:34;99393.81;;;21.82;63.76
43430;BME280;29028;43.234;27.896;2022-07-10T04:07:55;99394.97;;;21.71;63.74
43430;BME280;29028;43.234;27.896;2022-07-10T04:08:17;99389.16;;;21.78;64.16
43430;BME280;29028;43.234;27.896;2022-07-10T04:08:38;99407.25;;;21.79;63.76
43430;BME280;29028;43.234;27.896;2022-07-10T04:09:00;99393.28;;;21.75;64.07
43430;BME280;29028;43.234;27.896;2022-07-10T04:09:21;99393.34;;;21.60;63.46
43430;BME280;29028;43.234;27.896;2022-07-10T04:09:41;99397.47;;;21.53;63.94
43430;BME280;29028;43.234;27.896;2022-07-10T04:10:03;99394.75;;;21.43;64.46
43430;BME280;29028;43.234;27.896;2022-07-10T04:10:24;99393.13;;;21.42;64.60
43430;BME280;29028;43.234;27.896;2022-07-10T04:10:47;99398.81;;;21.60;64.73
43430;BME280;29028;43.234;27.896;2022-07-10T04:11:10;99393.59;;;21.64;64.03
43430;BME280;29028;43.234;27.896;2022-07-10T04:11:31;99400.44;;;21.61;64.15
43430;BME280;29028;43.234;27.896;2022-07-10T04:11:51;99394.47;;;21.54;64.28
43430;BME280;29028;43.234;27.896;2022-07-10T04:12:12;99395.53;;;21.53;64.58
43430;BME280;29028;43.234;27.896;2022-07-10T04:12:34;99392.28;;;21.46;64.86
43430;BME280;29028;43.234;27.896;2022-07-10T04:12:55;99395.56;;;21.48;64.71
43430;BME280;29028;43.234;27.896;2022-07-10T04:13:16;99395.53;;;21.53;64.97
43430;BME280;29028;43.234;27.896;2022-07-10T04:13:37;99395.50;;;21.73;64.69
43430;BME280;29028;43.234;27.896;2022-07-10T04:13:59;99398.22;;;21.73;64.51
43430;BME280;29028;43.234;27.896;2022-07-10T04:14:20;99396.75;;;21.96;64.04
43430;BME280;29028;43.234;27.896;2022-07-10T04:14:40;99391.38;;;21.76;63.46
43430;BME280;29028;43.234;27.896;2022-07-10T04:15:01;99398.25;;;21.68;63.55
43430;BME280;29028;43.234;27.896;2022-07-10T04:15:24;99397.13;;;21.64;63.84
43430;BME280;29028;43.234;27.896;2022-07-10T04:15:45;99390.84;;;21.64;64.13
43430;BME280;29028;43.234;27.896;2022-07-10T04:16:06;99391.41;;;21.56;63.96
43430;BME280;29028;43.234;27.896;2022-07-10T04:16:27;99398.00;;;21.55;64.16
43430;BME280;29028;43.234;27.896;2022-07-10T04:16:49;99395.03;;;21.46;63.61
43430;BME280;29028;43.234;27.896;2022-07-10T04:17:10;99389.84;;;21.40;64.25
43430;BME280;29028;43.234;27.896;2022-07-10T04:17:32;99396.13;;;21.45;64.52
43430;BME280;29028;43.234;27.896;2022-07-10T04:17:53;99393.16;;;21.37;64.45
43430;BME280;29028;43.234;27.896;2022-07-10T04:18:15;99392.88;;;21.38;64.54
43430;BME280;29028;43.234;27.896;2022-07-10T04:18:36;99397.53;;;21.38;64.81
43430;BME280;29028;43.234;27.896;2022-07-10T04:18:57;99395.38;;;21.30;64.79
43430;BME280;29028;43.234;27.896;2022-07-10T04:19:18;99396.16;;;21.35;65.22
43430;BME280;29028;43.234;27.896;2022-07-10T04:19:38;99398.03;;;21.50;65.56
43430;BME280;29028;43.234;27.896;2022-07-10T04:20:01;99398.03;;;21.45;64.84
43430;BME280;29028;43.234;27.896;2022-07-10T04:20:21;99383.53;;;21.49;64.78
43430;BME280;29028;43.234;27.896;2022-07-10T04:20:43;99393.91;;;21.47;63.94
43430;BME280;29028;43.234;27.896;2022-07-10T04:21:04;99400.75;;;21.50;64.33
43430;BME280;29028;43.234;27.896;2022-07-10T04:21:26;99398.25;;;21.63;64.62
43430;BME280;29028;43.234;27.896;2022-07-10T04:21:47;99397.44;;;21.68;64.38
43430;BME280;29028;43.234;27.896;2022-07-10T04:22:08;99392.78;;;21.58;63.30
43430;BME280;29028;43.234;27.896;2022-07-10T04:22:29;99399.41;;;21.47;63.84
43430;BME280;29028;43.234;27.896;2022-07-10T04:22:51;99393.91;;;21.47;64.09
43430;BME280;29028;43.234;27.896;2022-07-10T04:23:12;99400.75;;;21.55;64.31
43430;BME280;29028;43.234;27.896;2022-07-10T04:23:33;99388.72;;;21.46;63.99
43430;BME280;29028;43.234;27.896;2022-07-10T04:23:54;99399.16;;;21.34;64.35
43430;BME280;29028;43.234;27.896;2022-07-10T04:24:15;99392.88;;;21.38;63.94
43430;BME280;29028;43.234;27.896;2022-07-10T04:24:37;99390.94;;;21.39;63.95
43430;BME280;29028;43.234;27.896;2022-07-10T04:24:58;99393.94;;;21.42;64.00
43430;BME280;29028;43.234;27.896;2022-07-10T04:25:19;99401.34;;;21.47;64.39
43430;BME280;29028;43.234;27.896;2022-07-10T04:25:40;99392.84;;;21.43;63.81
43430;BME280;29028;43.234;27.896;2022-07-10T04:26:01;99397.50;;;21.48;64.10
43430;BME280;29028;43.234;27.896;2022-07-10T04:26:22;99393.09;;;21.57;63.73
43430;BME280;29028;43.234;27.896;2022-07-10T04:26:43;99395.84;;;21.47;63.72
43430;BME280;29028;43.234;27.896;2022-07-10T04:27:05;99398.34;;;21.43;63.86
43430;BME280;29028;43.234;27.896;2022-07-10T04:27:27;99394.50;;;21.44;63.57
43430;BME280;29028;43.234;27.896;2022-07-10T04:27:48;99392.03;;;21.43;63.37
43430;BME280;29028;43.234;27.896;2022-07-10T04:28:09;99388.44;;;21.47;63.66
43430;BME280;29028;43.234;27.896;2022-07-10T04:28:31;99393.00;;;21.67;64.31
43430;BME280;29028;43.234;27.896;2022-07-10T04:28:52;99396.34;;;21.59;63.51
43430;BME280;29028;43.234;27.896;2022-07-10T04:29:12;99397.72;;;21.56;63.87
43430;BME280;29028;43.234;27.896;2022-07-10T04:29:33;99400.44;;;21.71;63.98
43430;BME280;29028;43.234;27.896;2022-07-10T04:29:55;99392.22;;;21.71;63.17
43430;BME280;29028;43.234;27.896;2022-07-10T04:30:16;99400.13;;;21.73;62.90
43430;BME280;29028;43.234;27.896;2022-07-10T04:30:37;99395.44;;;21.83;63.02
43430;BME280;29028;43.234;27.896;2022-07-10T04:30:58;99398.72;;;21.85;62.79
43430;BME280;29028;43.234;27.896;2022-07-10T04:31:19;99391.28;;;21.96;62.25
43430;BME280;29028;43.234;27.896;2022-07-10T04:31:41;99394.09;;;21.81;62.30
43430;BME280;29028;43.234;27.896;2022-07-10T04:32:03;99397.69;;;21.76;62.25
43430;BME280;29028;43.234;27.896;2022-07-10T04:32:24;99395.75;;;21.72;62.06
43430;BME280;29028;43.234;27.896;2022-07-10T04:32:46;99394.72;;;21.68;62.46
43430;BME280;29028;43.234;27.896;2022-07-10T04:33:08;99400.97;;;21.73;63.07
43430;BME280;29028;43.234;27.896;2022-07-10T04:33:29;99402.59;;;21.79;62.61
43430;BME280;29028;43.234;27.896;2022-07-10T04:33:49;99409.34;;;21.97;62.56
43430;BME280;29028;43.234;27.896;2022-07-10T04:34:10;99397.25;;;22.03;62.26
43430;BME280;29028;43.234;27.896;2022-07-10T04:34:31;99406.34;;;21.98;62.16
43430;BME280;29028;43.234;27.896;2022-07-10T04:34:53;99400.28;;;21.96;61.95
43430;BME280;29028;43.234;27.896;2022-07-10T04:35:14;99402.72;;;22.08;62.27
43430;BME280;29028;43.234;27.896;2022-07-10T04:35:35;99401.88;;;22.07;61.87
43430;BME280;29028;43.234;27.896;2022-07-10T04:35:56;99397.47;;;22.11;61.35
43430;BME280;29028;43.234;27.896;2022-07-10T04:36:18;99400.72;;;22.18;61.06
43430;BME280;29028;43.234;27.896;2022-07-10T04:36:39;99402.09;;;22.16;61.00
43430;BME280;29028;43.234;27.896;2022-07-10T04:36:59;99407.56;;;22.21;60.41
43430;BME280;29028;43.234;27.896;2022-07-10T04:37:20;99392.69;;;22.27;60.48
43430;BME280;29028;43.234;27.896;2022-07-10T04:37:42;99396.50;;;22.36;60.13
43430;BME280;29028;43.234;27.896;2022-07-10T04:38:03;99397.25;;;22.46;60.30
43430;BME280;29028;43.234;27.896;2022-07-10T04:38:24;99389.06;;;22.41;59.96
43430;BME280;29028;43.234;27.896;2022-07-10T04:38:45;99397.25;;;22.46;59.29
43430;BME280;29028;43.234;27.896;2022-07-10T04:39:07;99401.56;;;22.57;59.95
43430;BME280;29028;43.234;27.896;2022-07-10T04:39:28;99400.13;;;22.65;59.05
43430;BME280;29028;43.234;27.896;2022-07-10T04:39:49;99384.47;;;22.65;59.24
43430;BME280;29028;43.234;27.896;2022-07-10T04:40:11;99398.41;;;22.74;59.04
43430;BME280;29028;43.234;27.896;2022-07-10T04:40:32;99392.84;;;22.84;58.71
43430;BME280;29028;43.234;27.896;2022-07-10T04:40:53;99393.63;;;22.84;58.27
43430;BME280;29028;43.234;27.896;2022-07-10T04:41:14;99400.25;;;22.83;58.19
43430;BME280;29028;43.234;27.896;2022-07-10T04:41:35;99391.19;;;22.83;57.66
43430;BME280;29028;43.234;27.896;2022-07-10T04:41:56;99398.66;;;22.77;57.50
43430;BME280;29028;43.234;27.896;2022-07-10T04:42:17;99390.22;;;22.69;57.99
43430;BME280;29028;43.234;27.896;2022-07-10T04:42:39;99397.34;;;22.70;58.12
43430;BME280;29028;43.234;27.896;2022-07-10T04:43:00;99394.03;;;22.73;58.45
43430;BME280;29028;43.234;27.896;2022-07-10T04:43:20;99403.34;;;22.77;58.16
43430;BME280;29028;43.234;27.896;2022-07-10T04:43:41;99396.47;;;22.79;57.99
43430;BME280;29028;43.234;27.896;2022-07-10T04:44:03;99397.09;;;22.66;57.90
43430;BME280;29028;43.234;27.896;2022-07-10T04:44:25;99394.16;;;22.58;57.78
43430;BME280;29028;43.234;27.896;2022-07-10T04:44:46;99396.44;;;22.41;57.97
43430;BME280;29028;43.234;27.896;2022-07-10T04:45:07;99393.16;;;22.44;58.01
43430;BME280;29028;43.234;27.896;2022-07-10T04:45:28;99396.69;;;22.49;58.28
43430;BME280;29028;43.234;27.896;2022-07-10T04:45:49;99400.00;;;22.46;58.12
43430;BME280;29028;43.234;27.896;2022-07-10T04:46:11;99403.06;;;22.40;57.99
43430;BME280;29028;43.234;27.896;2022-07-10T04:46:32;99396.41;;;22.51;58.83
43430;BME280;29028;43.234;27.896;2022-07-10T04:46:53;99404.09;;;22.49;58.23
43430;BME280;29028;43.234;27.896;2022-07-10T04:47:14;99395.31;;;22.52;58.25
43430;BME280;29028;43.234;27.896;2022-07-10T04:47:35;99398.28;;;22.55;58.29
43430;BME280;29028;43.234;27.896;2022-07-10T04:47:58;99396.34;;;22.61;58.00
43430;BME280;29028;43.234;27.896;2022-07-10T04:48:19;99397.38;;;22.65;57.80
43430;BME280;29028;43.234;27.896;2022-07-10T04:48:40;99393.00;;;22.64;57.63
43430;BME280;29028;43.234;27.896;2022-07-10T04:49:02;99402.53;;;22.71;57.58
43430;BME280;29028;43.234;27.896;2022-07-10T04:49:23;99392.97;;;22.69;57.35
43430;BME280;29028;43.234;27.896;2022-07-10T04:49:44;99384.03;;;22.53;57.35
43430;BME280;29028;43.234;27.896;2022-07-10T04:50:07;99394.81;;;22.45;58.18
43430;BME280;29028;43.234;27.896;2022-07-10T04:50:29;99408.25;;;22.41;57.95
43430;BME280;29028;43.234;27.896;2022-07-10T04:50:51;99401.09;;;22.45;57.95
43430;BME280;29028;43.234;27.896;2022-07-10T04:51:11;99395.06;;;22.48;58.30
43430;BME280;29028;43.234;27.896;2022-07-10T04:51:32;99402.97;;;22.55;57.86
43430;BME280;29028;43.234;27.896;2022-07-10T04:51:54;99405.72;;;22.55;58.21
43430;BME280;29028;43.234;27.896;2022-07-10T04:52:15;99406.47;;;22.60;57.95
43430;BME280;29028;43.234;27.896;2022-07-10T04:52:36;99398.97;;;22.71;58.12
43430;BME280;29028;43.234;27.896;2022-07-10T04:52:57;99395.91;;;22.77;57.39
43430;BME280;29028;43.234;27.896;2022-07-10T04:53:18;99400.03;;;22.75;57.43
43430;BME280;29028;43.234;27.896;2022-07-10T04:53:40;99406.66;;;22.74;57.26
43430;BME280;29028;43.234;27.896;2022-07-10T04:54:01;99402.50;;;22.76;57.58
43430;BME280;29028;43.234;27.896;2022-07-10T04:54:22;99391.59;;;22.66;57.11
43430;BME280;29028;43.234;27.896;2022-07-10T04:54:43;99399.09;;;22.61;57.38
43430;BME280;29028;43.234;27.896;2022-07-10T04:55:06;99399.53;;;22.73;58.02
43430;BME280;29028;43.234;27.896;2022-07-10T04:55:28;99399.44;;;22.83;56.87
43430;BME280;29028;43.234;27.896;2022-07-10T04:55:49;99406.81;;;22.87;57.17
43430;BME280;29028;43.234;27.896;2022-07-10T04:56:10;99395.50;;;22.94;56.60
43430;BME280;29028;43.234;27.896;2022-07-10T04:56:32;99393.31;;;22.91;55.83
43430;BME280;29028;43.234;27.896;2022-07-10T04:56:53;99402.53;;;23.05;56.62
43430;BME280;29028;43.234;27.896;2022-07-10T04:57:14;99396.66;;;22.88;55.83
43430;BME280;29028;43.234;27.896;2022-07-10T04:57:34;99399.44;;;22.83;55.66
43430;BME280;29028;43.234;27.896;2022-07-10T04:57:56;99405.81;;;22.73;56.27
43430;BME280;29028;43.234;27.896;2022-07-10T04:58:17;99395.94;;;22.72;56.13
43430;BME280;29028;43.234;27.896;2022-07-10T04:58:38;99398.16;;;22.70;56.37
43430;BME280;29028;43.234;27.896;2022-07-10T04:58:59;99400.00;;;22.80;55.87
43430;BME280;29028;43.234;27.896;2022-07-10T04:59:20;99410.97;;;22.80;56.27
43430;BME280;29028;43.234;27.896;2022-07-10T04:59:42;99409.59;;;22.82;56.09
43430;BME280;29028;43.234;27.896;2022-07-10T05:00:06;99400.25;;;22.83;56.03
43430;BME280;29028;43.234;27.896;2022-07-10T05:00:27;99406.75;;;22.92;56.17
43430;BME280;29028;43.234;27.896;2022-07-10T05:00:48;99402.63;;;22.95;56.27
43430;BME280;29028;43.234;27.896;2022-07-10T05:01:10;99410.56;;;22.96;55.79
43430;BME280;29028;43.234;27.896;2022-07-10T05:01:31;99399.88;;;22.95;55.82
43430;BME280;29028;43.234;27.896;2022-07-10T05:01:52;99411.66;;;22.95;56.04
43430;BME280;29028;43.234;27.896;2022-07-10T05:02:13;99402.66;;;22.90;56.00
43430;BME280;29028;43.234;27.896;2022-07-10T05:02:35;99400.47;;;22.87;56.02
43430;BME280;29028;43.234;27.896;2022-07-10T05:02:56;99383.81;;;22.78;55.64
43430;BME280;29028;43.234;27.896;2022-07-10T05:03:18;99404.53;;;22.66;56.00
43430;BME280;29028;43.234;27.896;2022-07-10T05:03:39;99400.69;;;22.67;56.52
43430;BME280;29028;43.234;27.896;2022-07-10T05:04:01;99411.66;;;22.67;56.41
43430;BME280;29028;43.234;27.896;2022-07-10T05:04:21;99410.50;;;22.73;56.90
43430;BME280;29028;43.234;27.896;2022-07-10T05:04:42;99407.94;;;22.81;56.90
43430;BME280;29028;43.234;27.896;2022-07-10T05:05:04;99413.03;;;22.93;56.95
43430;BME280;29028;43.234;27.896;2022-07-10T05:05:26;99418.13;;;23.09;56.63
43430;BME280;29028;43.234;27.896;2022-07-10T05:05:47;99415.09;;;23.11;56.08
43430;BME280;29028;43.234;27.896;2022-07-10T05:06:08;99407.78;;;23.01;56.02
43430;BME280;29028;43.234;27.896;2022-07-10T05:06:29;99412.63;;;23.09;56.06
43430;BME280;29028;43.234;27.896;2022-07-10T05:06:51;99418.63;;;23.11;55.64
43430;BME280;29028;43.234;27.896;2022-07-10T05:07:12;99412.00;;;23.17;55.43
43430;BME280;29028;43.234;27.896;2022-07-10T05:07:34;99410.06;;;23.23;55.52
43430;BME280;29028;43.234;27.896;2022-07-10T05:07:55;99416.25;;;23.33;55.31
43430;BME280;29028;43.234;27.896;2022-07-10T05:08:18;99415.91;;;23.40;55.33
43430;BME280;29028;43.234;27.896;2022-07-10T05:08:39;99413.03;;;23.26;54.83
43430;BME280;29028;43.234;27.896;2022-07-10T05:09:00;99425.19;;;23.15;55.09
43430;BME280;29028;43.234;27.896;2022-07-10T05:09:21;99417.50;;;23.17;54.86
43430;BME280;29028;43.234;27.896;2022-07-10T05:09:43;99414.22;;;23.15;54.57
43430;BME280;29028;43.234;27.896;2022-07-10T05:10:04;99412.16;;;23.02;55.37
43430;BME280;29028;43.234;27.896;2022-07-10T05:10:25;99416.88;;;22.97;55.37
43430;BME280;29028;43.234;27.896;2022-07-10T05:10:47;99420.53;;;22.87;55.26
43430;BME280;29028;43.234;27.896;2022-07-10T05:11:09;99416.16;;;22.86;55.64
43430;BME280;29028;43.234;27.896;2022-07-10T05:11:30;99412.28;;;22.87;56.26
43430;BME280;29028;43.234;27.896;2022-07-10T05:11:51;99423.97;;;22.98;55.63
43430;BME280;29028;43.234;27.896;2022-07-10T05:12:13;99422.06;;;22.98;55.69
43430;BME280;29028;43.234;27.896;2022-07-10T05:12:34;99426.72;;;22.98;55.83
43430;BME280;29028;43.234;27.896;2022-07-10T05:12:55;99411.03;;;23.03;55.73
43430;BME280;29028;43.234;27.896;2022-07-10T05:13:16;99421.50;;;23.01;55.76
43430;BME280;29028;43.234;27.896;2022-07-10T05:13:37;99412.72;;;22.99;55.38
43430;BME280;29028;43.234;27.896;2022-07-10T05:14:00;99418.50;;;22.98;55.60
43430;BME280;29028;43.234;27.896;2022-07-10T05:14:20;99429.19;;;22.99;55.57
43430;BME280;29028;43.234;27.896;2022-07-10T05:14:42;99429.63;;;23.11;55.31
43430;BME280;29028;43.234;27.896;2022-07-10T05:15:03;99429.56;;;23.16;55.20
43430;BME280;29028;43.234;27.896;2022-07-10T05:15:25;99416.41;;;23.18;55.50
43430;BME280;29028;43.234;27.896;2022-07-10T05:15:46;99431.94;;;23.33;55.37
43430;BME280;29028;43.234;27.896;2022-07-10T05:16:07;99432.91;;;23.42;55.56
43430;BME280;29028;43.234;27.896;2022-07-10T05:16:28;99428.53;;;23.41;55.36
43430;BME280;29028;43.234;27.896;2022-07-10T05:16:49;99422.06;;;23.32;54.70
43430;BME280;29028;43.234;27.896;2022-07-10T05:17:11;99433.13;;;23.22;54.99
43430;BME280;29028;43.234;27.896;2022-07-10T05:17:31;99424.78;;;23.32;55.27
43430;BME280;29028;43.234;27.896;2022-07-10T05:17:52;99432.72;;;23.33;55.05
43430;BME280;29028;43.234;27.896;2022-07-10T05:18:13;99428.78;;;23.16;54.80
43430;BME280;29028;43.234;27.896;2022-07-10T05:18:35;99425.97;;;23.26;55.21
43430;BME280;29028;43.234;27.896;2022-07-10T05:18:57;99426.25;;;23.24;54.68
43430;BME280;29028;43.234;27.896;2022-07-10T05:19:18;99428.22;;;23.19;55.05
43430;BME280;29028;43.234;27.896;2022-07-10T05:19:39;99431.31;;;23.36;54.73
43430;BME280;29028;43.234;27.896;2022-07-10T05:20:01;99433.28;;;23.35;54.74
43430;BME280;29028;43.234;27.896;2022-07-10T05:20:23;99422.50;;;23.39;54.51
43430;BME280;29028;43.234;27.896;2022-07-10T05:20:44;99421.34;;;23.45;54.94
43430;BME280;29028;43.234;27.896;2022-07-10T05:21:05;99433.41;;;23.49;54.27
43430;BME280;29028;43.234;27.896;2022-07-10T05:21:26;99429.81;;;23.48;54.43
43430;BME280;29028;43.234;27.896;2022-07-10T05:21:48;99428.75;;;23.44;54.60
43430;BME280;29028;43.234;27.896;2022-07-10T05:22:09;99432.56;;;23.48;54.75
43430;BME280;29028;43.234;27.896;2022-07-10T05:22:30;99435.25;;;23.53;54.68
43430;BME280;29028;43.234;27.896;2022-07-10T05:22:51;99429.47;;;23.55;54.49
43430;BME280;29028;43.234;27.896;2022-07-10T05:23:11;99425.72;;;23.46;54.26
43430;BME280;29028;43.234;27.896;2022-07-10T05:23:34;99434.25;;;23.44;54.23
43430;BME280;29028;43.234;27.896;2022-07-10T05:23:55;99434.84;;;23.41;54.44
43430;BME280;29028;43.234;27.896;2022-07-10T05:24:15;99441.69;;;23.44;54.32
43430;BME280;29028;43.234;27.896;2022-07-10T05:24:37;99424.44;;;23.38;54.63
43430;BME280;29028;43.234;27.896;2022-07-10T05:24:58;99429.41;;;23.36;54.45
43430;BME280;29028;43.234;27.896;2022-07-10T05:25:19;99434.44;;;23.29;54.72
43430;BME280;29028;43.234;27.896;2022-07-10T05:25:40;99447.63;;;23.27;54.77
43430;BME280;29028;43.234;27.896;2022-07-10T05:26:02;99439.63;;;23.31;54.97
43430;BME280;29028;43.234;27.896;2022-07-10T05:26:23;99437.59;;;23.41;55.27
43430;BME280;29028;43.234;27.896;2022-07-10T05:26:44;99440.81;;;23.48;54.68
43430;BME280;29028;43.234;27.896;2022-07-10T05:27:05;99436.09;;;23.54;54.82
43430;BME280;29028;43.234;27.896;2022-07-10T05:27:27;99427.78;;;23.35;54.44
43430;BME280;29028;43.234;27.896;2022-07-10T05:27:48;99435.47;;;23.33;54.49
43430;BME280;29028;43.234;27.896;2022-07-10T05:28:09;99442.03;;;23.37;54.74
43430;BME280;29028;43.234;27.896;2022-07-10T05:28:30;99437.66;;;23.36;54.41
43430;BME280;29028;43.234;27.896;2022-07-10T05:28:51;99443.31;;;23.45;54.57
43430;BME280;29028;43.234;27.896;2022-07-10T05:29:12;99438.00;;;23.53;54.43
43430;BME280;29028;43.234;27.896;2022-07-10T05:29:33;99440.38;;;23.65;54.29
43430;BME280;29028;43.234;27.896;2022-07-10T05:29:54;99429.94;;;23.62;53.88
43430;BME280;29028;43.234;27.896;2022-07-10T05:30:15;99431.56;;;23.63;54.26
43430;BME280;29028;43.234;27.896;2022-07-10T05:30:36;99440.69;;;23.58;54.24
43430;BME280;29028;43.234;27.896;2022-07-10T05:31:18;99440.28;;;23.46;54.44
43430;BME280;29028;43.234;27.896;2022-07-10T05:31:39;99444.69;;;23.47;54.60
43430;BME280;29028;43.234;27.896;2022-07-10T05:32:00;99437.44;;;23.56;54.72
43430;BME280;29028;43.234;27.896;2022-07-10T05:32:22;99445.25;;;23.68;54.25
43430;BME280;29028;43.234;27.896;2022-07-10T05:33:04;99431.94;;;23.56;54.20
43430;BME280;29028;43.234;27.896;2022-07-10T05:33:25;99443.13;;;23.65;54.02
43430;BME280;29028;43.234;27.896;2022-07-10T05:33:48;99445.09;;;23.59;53.51
43430;BME280;29028;43.234;27.896;2022-07-10T05:34:10;99449.41;;;23.65;53.47
43430;BME280;29028;43.234;27.896;2022-07-10T05:34:31;99450.25;;;23.66;53.90
43430;BME280;29028;43.234;27.896;2022-07-10T05:34:52;99450.97;;;23.71;53.98
43430;BME280;29028;43.234;27.896;2022-07-10T05:35:14;99446.03;;;23.73;53.84
43430;BME280;29028;43.234;27.896;2022-07-10T05:35:35;99438.06;;;23.72;53.82
43430;BME280;29028;43.234;27.896;2022-07-10T05:35:57;99436.72;;;23.69;54.12
43430;BME280;29028;43.234;27.896;2022-07-10T05:36:18;99452.66;;;23.72;53.94
43430;BME280;29028;43.234;27.896;2022-07-10T05:36:39;99449.34;;;23.70;53.50
43430;BME280;29028;43.234;27.896;2022-07-10T05:37:00;99453.22;;;23.69;53.99
43430;BME280;29028;43.234;27.896;2022-07-10T05:37:22;99451.31;;;23.70;53.72
43430;BME280;29028;43.234;27.896;2022-07-10T05:37:43;99447.16;;;23.72;53.61
43430;BME280;29028;43.234;27.896;2022-07-10T05:38:04;99450.28;;;23.84;53.32
43430;BME280;29028;43.234;27.896;2022-07-10T05:38:26;99444.50;;;23.86;52.97
43430;BME280;29028;43.234;27.896;2022-07-10T05:38:47;99458.75;;;23.93;53.14
43430;BME280;29028;43.234;27.896;2022-07-10T05:39:07;99457.34;;;23.95;53.09
43430;BME280;29028;43.234;27.896;2022-07-10T05:39:28;99463.56;;;24.01;53.21
43430;BME280;29028;43.234;27.896;2022-07-10T05:39:50;99453.84;;;24.08;52.98
43430;BME280;29028;43.234;27.896;2022-07-10T05:40:11;99463.28;;;24.02;52.36
43430;BME280;29028;43.234;27.896;2022-07-10T05:40:33;99455.53;;;24.04;52.60
43430;BME280;29028;43.234;27.896;2022-07-10T05:40:53;99460.56;;;24.21;52.72
43430;BME280;29028;43.234;27.896;2022-07-10T05:41:15;99459.31;;;24.32;52.83
43430;BME280;29028;43.234;27.896;2022-07-10T05:41:36;99459.16;;;24.42;52.07
43430;BME280;29028;43.234;27.896;2022-07-10T05:41:57;99460.78;;;24.43;51.84
43430;BME280;29028;43.234;27.896;2022-07-10T05:42:20;99460.22;;;24.46;52.21
43430;BME280;29028;43.234;27.896;2022-07-10T05:42:40;99461.28;;;24.26;51.80
43430;BME280;29028;43.234;27.896;2022-07-10T05:43:01;99458.88;;;24.25;52.01
43430;BME280;29028;43.234;27.896;2022-07-10T05:43:22;99454.97;;;24.07;52.51
43430;BME280;29028;43.234;27.896;2022-07-10T05:43:44;99463.50;;;24.06;52.34
43430;BME280;29028;43.234;27.896;2022-07-10T05:44:05;99466.41;;;24.14;52.20
43430;BME280;29028;43.234;27.896;2022-07-10T05:44:26;99464.78;;;24.13;52.05
43430;BME280;29028;43.234;27.896;2022-07-10T05:44:47;99461.38;;;24.03;52.13
43430;BME280;29028;43.234;27.896;2022-07-10T05:45:08;99458.22;;;24.09;51.51
43430;BME280;29028;43.234;27.896;2022-07-10T05:45:30;99459.41;;;24.03;51.99
43430;BME280;29028;43.234;27.896;2022-07-10T05:45:51;99461.88;;;24.05;51.81
43430;BME280;29028;43.234;27.896;2022-07-10T05:46:12;99455.50;;;23.86;51.75
43430;BME280;29028;43.234;27.896;2022-07-10T05:46:33;99452.56;;;23.77;52.08
43430;BME280;29028;43.234;27.896;2022-07-10T05:46:54;99454.56;;;23.72;51.75
43430;BME280;29028;43.234;27.896;2022-07-10T05:47:16;99463.81;;;23.81;51.98
43430;BME280;29028;43.234;27.896;2022-07-10T05:47:37;99467.91;;;23.83;52.33
43430;BME280;29028;43.234;27.896;2022-07-10T05:47:58;99464.63;;;23.81;52.52
43430;BME280;29028;43.234;27.896;2022-07-10T05:48:18;99460.88;;;23.96;51.87
43430;BME280;29028;43.234;27.896;2022-07-10T05:48:41;99456.31;;;23.86;51.53
43430;BME280;29028;43.234;27.896;2022-07-10T05:49:03;99464.44;;;23.73;52.17
43430;BME280;29028;43.234;27.896;2022-07-10T05:49:24;99468.59;;;23.70;52.60
43430;BME280;29028;43.234;27.896;2022-07-10T05:49:45;99469.66;;;23.74;52.79
43430;BME280;29028;43.234;27.896;2022-07-10T05:50:08;99470.06;;;23.86;52.77
43430;BME280;29028;43.234;27.896;2022-07-10T05:50:29;99466.75;;;23.89;52.68
43430;BME280;29028;43.234;27.896;2022-07-10T05:50:50;99462.56;;;23.97;52.21
43430;BME280;29028;43.234;27.896;2022-07-10T05:51:12;99460.81;;;24.01;52.04
43430;BME280;29028;43.234;27.896;2022-07-10T05:51:34;99463.75;;;24.09;51.99
43430;BME280;29028;43.234;27.896;2022-07-10T05:51:54;99467.19;;;24.20;51.55
43430;BME280;29028;43.234;27.896;2022-07-10T05:52:15;99467.03;;;24.11;52.02
43430;BME280;29028;43.234;27.896;2022-07-10T05:52:36;99462.19;;;24.22;52.10
43430;BME280;29028;43.234;27.896;2022-07-10T05:52:57;99451.03;;;24.13;51.69
43430;BME280;29028;43.234;27.896;2022-07-10T05:53:19;99458.78;;;24.11;51.60
43430;BME280;29028;43.234;27.896;2022-07-10T05:53:40;99459.41;;;24.03;51.61
43430;BME280;29028;43.234;27.896;2022-07-10T05:54:01;99451.72;;;24.05;51.75
43430;BME280;29028;43.234;27.896;2022-07-10T05:54:23;99453.44;;;24.20;51.11